Quinsam — VY6800 — position and weather

sailwx.info

Track history (hours):
 
Tides and Currents Weather Stations Pressure Air Temp Water Temp Dewpoint Dewpoint Depression Visibility Wind Speed Wind Dir Waves Ship Positions

Quinsam

Last reported at 2015-May-30 06:29 UTC. Time now 2015-May-30 08:36 UTC.
Position N 49°11' W 123°52'.

Length 88 m; draft 1.5 m.

Type: Ship. MMSI: 316001266.

Date/timePositionNaut miles runAvg speedWind from/ knotsBaromVisibWave heightAir tempDewpointWater temp
2015-May-30 06:29N 49°11' W 123°52'0 0.2
2015-May-30 05:33N 49°11' W 123°52'0 0.0
2015-May-30 04:33N 49°11' W 123°52'1 0.9
2015-May-30 03:33N 49°11' W 123°53'1 0.5
2015-May-30 02:32N 49°11' W 123°52'1 0.5
2015-May-30 01:33N 49°11' W 123°52'0 0.0
2015-May-30 00:29N 49°11' W 123°52'1 1.6
2015-May-29 23:34N 49°10' W 123°54'1 1.4
2015-May-29 22:33N 49°10' W 123°56'1 0.7
2015-May-29 21:33N 49°10' W 123°55'2 2.2
2015-May-29 20:33N 49°11' W 123°52'1 0.4
2015-May-29 18:25N 49°11' W 123°53'1 0.5
2015-May-29 16:32N 49°10' W 123°54'0 0.1
2015-May-29 13:26N 49°10' W 123°54'1 0.1
2015-May-29 06:19N 49°11' W 123°53'0 0.4
2015-May-29 05:33N 49°11' W 123°52'0 0.5
2015-May-29 04:33N 49°11' W 123°52'1 1.2
2015-May-29 03:33N 49°11' W 123°53'1 0.9
2015-May-29 02:33N 49°11' W 123°52'0 0.2
2015-May-29 01:28N 49°11' W 123°52'0 0.2
2015-May-29 00:19N 49°11' W 123°53'0 0.1
2015-May-28 23:31N 49°11' W 123°53'2 2.1
2015-May-28 22:32N 49°10' W 123°56'1 1.0
2015-May-28 21:33N 49°10' W 123°54'1 1.3
2015-May-28 20:32N 49°11' W 123°53'1 0.5
2015-May-28 19:22N 49°11' W 123°52'2 2.2
2015-May-28 18:33N 49°10' W 123°54'1 1.0
2015-May-28 17:26N 49°10' W 123°56'1 0.8
2015-May-28 16:33N 49°10' W 123°55'2 2.2
2015-May-28 15:33N 49°11' W 123°52'0 0.0
2015-May-28 14:33N 49°11' W 123°52'3 2.8
2015-May-28 13:33N 49°10' W 123°56'3 2.6
2015-May-28 12:29N 49°11' W 123°52'0 0.0
2015-May-28 11:29N 49°11' W 123°52'0 0.0
2015-May-28 10:23N 49°11' W 123°52'0 0.0
2015-May-28 07:05N 49°11' W 123°52'0 0.0
2015-May-28 06:27N 49°11' W 123°52'0 0.0
2015-May-28 04:29N 49°11' W 123°52'1 0.8
2015-May-28 03:31N 49°11' W 123°53'0 0.4
2015-May-28 02:33N 49°11' W 123°52'0 0.5
2015-May-28 01:33N 49°11' W 123°52'0 0.0
2015-May-28 00:29N 49°11' W 123°52'1 1.5
2015-May-27 23:33N 49°10' W 123°54'2 1.4
2015-May-27 22:27N 49°10' W 123°56'1 1.0
2015-May-27 21:33N 49°10' W 123°55'2 2.0
2015-May-27 20:33N 49°11' W 123°52'0 0.0
2015-May-27 19:33N 49°11' W 123°52'2 2.3
2015-May-27 18:33N 49°10' W 123°55'1 0.6
2015-May-27 17:29N 49°10' W 123°56'0 0.2
2015-May-27 16:33N 49°10' W 123°56'2 2.3
2015-May-27 15:28N 49°11' W 123°52'0 0.2
2015-May-27 14:31N 49°11' W 123°52'3 2.9
2015-May-27 13:33N 49°10' W 123°56'3 2.6
2015-May-27 12:28N 49°11' W 123°52'0 0.0
2015-May-27 06:32N 49°11' W 123°52'1 0.5
2015-May-27 05:33N 49°11' W 123°52'0 0.3
2015-May-27 04:33N 49°11' W 123°52'1 0.7
2015-May-27 03:33N 49°11' W 123°53'0 0.2
2015-May-27 02:32N 49°11' W 123°53'0 0.1
2015-May-27 01:26N 49°11' W 123°53'1 0.9
2015-May-27 00:30N 49°11' W 123°52'1 1.4
2015-May-26 23:33N 49°10' W 123°54'2 1.4
2015-May-26 22:27N 49°10' W 123°56'1 1.3
2015-May-26 21:33N 49°10' W 123°54'1 1.2
2015-May-26 20:29N 49°11' W 123°52'0 0.5
2015-May-26 19:33N 49°11' W 123°52'2 2.2
2015-May-26 18:33N 49°10' W 123°55'1 0.6
2015-May-26 17:25N 49°10' W 123°56'1 1.5
2015-May-26 16:33N 49°10' W 123°54'2 1.6
2015-May-26 15:33N 49°11' W 123°52'0 0.0
2015-May-26 14:33N 49°11' W 123°52'3 2.6
2015-May-26 13:33N 49°10' W 123°55'3 0.4
2015-May-26 06:27N 49°11' W 123°52'1 0.6
2015-May-26 05:33N 49°11' W 123°52'1 0.5
2015-May-26 04:30N 49°11' W 123°52'1 1.0
2015-May-26 03:33N 49°11' W 123°53'0 0.4
2015-May-26 02:33N 49°11' W 123°52'1 0.6
2015-May-26 01:33N 49°11' W 123°52'0 0.0
2015-May-26 00:33N 49°11' W 123°52'2 1.7
2015-May-25 23:33N 49°10' W 123°54'1 1.2
2015-May-25 22:32N 49°10' W 123°56'1 1.4
2015-May-25 21:33N 49°10' W 123°54'1 0.9
2015-May-25 20:29N 49°11' W 123°53'0 0.2
2015-May-25 19:23N 49°11' W 123°52'0 0.2
2015-May-25 18:08N 49°11' W 123°52'3 4.4
2015-May-25 17:33N 49°10' W 123°56'1 0.6
2015-May-25 16:33N 49°10' W 123°55'2 2.2
2015-May-25 15:33N 49°11' W 123°52'0 0.3
2015-May-25 14:12N 49°11' W 123°52'2 3.6
2015-May-25 13:33N 49°10' W 123°56'3 2.6
2015-May-25 12:29N 49°11' W 123°52'0 0.0
2015-May-25 06:28N 49°11' W 123°52'0 0.2
2015-May-25 05:32N 49°11' W 123°52'0 0.2
2015-May-25 04:33N 49°11' W 123°52'1 0.7
2015-May-25 03:33N 49°10' W 123°53'0 0.4
2015-May-25 02:32N 49°11' W 123°53'0 0.3
2015-May-25 01:28N 49°11' W 123°52'0 0.4
2015-May-25 00:33N 49°11' W 123°52'2 1.8
2015-May-24 23:34N 49°10' W 123°54'1 1.1
2015-May-24 22:33N 49°10' W 123°56'3 2.7
2015-May-24 21:30N 49°11' W 123°52'0 0.2
2015-May-24 20:29N 49°11' W 123°52'0 0.2
2015-May-24 19:13N 49°11' W 123°52'2 2.4
2015-May-24 18:33N 49°10' W 123°55'1 0.7
2015-May-24 17:25N 49°10' W 123°56'1 1.0
2015-May-24 16:33N 49°10' W 123°55'0 0.0
2015-May-24 06:11N 49°10' W 123°54'1 0.9
2015-May-24 05:17N 49°11' W 123°53'1 0.8
2015-May-24 04:17N 49°11' W 123°52'1 1.0
2015-May-24 03:33N 49°10' W 123°53'1 0.7
2015-May-24 02:33N 49°11' W 123°52'1 0.5
2015-May-24 01:32N 49°11' W 123°52'0 0.0
2015-May-24 00:33N 49°11' W 123°52'2 1.6
2015-May-23 23:33N 49°10' W 123°54'1 1.2
2015-May-23 22:32N 49°10' W 123°56'3 3.0
2015-May-23 21:33N 49°11' W 123°52'0 0.2
2015-May-23 20:32N 49°11' W 123°52'0 0.2
2015-May-23 19:24N 49°11' W 123°52'2 2.3
2015-May-23 18:33N 49°10' W 123°54'1 0.9
2015-May-23 17:26N 49°10' W 123°56'1 1.1
2015-May-23 16:34N 49°10' W 123°54'2 1.9
2015-May-23 15:34N 49°11' W 123°52'0 0.0
2015-May-23 14:25N 49°11' W 123°52'3 3.1
2015-May-23 13:33N 49°10' W 123°55'3 0.4
2015-May-23 06:27N 49°11' W 123°52'0 0.0
2015-May-23 05:33N 49°11' W 123°52'0 0.0
2015-May-23 04:33N 49°11' W 123°52'1 1.3
2015-May-23 03:33N 49°10' W 123°53'1 0.7
2015-May-23 02:32N 49°11' W 123°52'1 0.6
2015-May-23 01:33N 49°11' W 123°52'0 0.0
2015-May-23 00:33N 49°11' W 123°52'1 0.7
2015-May-22 23:33N 49°11' W 123°53'2 2.0
2015-May-22 22:26N 49°10' W 123°56'1 1.0
2015-May-22 21:33N 49°10' W 123°54'2 1.9
2015-May-22 20:34N 49°11' W 123°52'0 0.2
2015-May-22 19:33N 49°11' W 123°52'2 1.9
2015-May-22 18:33N 49°10' W 123°54'1 0.9
2015-May-22 17:25N 49°10' W 123°56'0 0.6
2015-May-22 16:34N 49°10' W 123°55'2 2.4
2015-May-22 15:33N 49°11' W 123°52'0 0.0
2015-May-22 14:25N 49°11' W 123°52'2 2.6
2015-May-22 13:32N 49°10' W 123°55'2 1.1
2015-May-22 11:26N 49°11' W 123°52'0 0.0
2015-May-22 10:17N 49°11' W 123°52'0 0.0
2015-May-22 06:26N 49°11' W 123°52'0 0.0
2015-May-22 05:33N 49°11' W 123°52'0 0.0
2015-May-22 04:28N 49°11' W 123°52'0 0.0
2015-May-22 03:26N 49°11' W 123°52'1 0.7
2015-May-22 02:33N 49°11' W 123°53'0 0.1
2015-May-22 01:26N 49°11' W 123°53'1 0.8
2015-May-22 00:32N 49°11' W 123°52'1 1.5
2015-May-21 23:33N 49°10' W 123°54'1 1.4
2015-May-21 22:33N 49°10' W 123°56'0 0.0
2015-May-21 21:33N 49°10' W 123°56'2 1.7
2015-May-21 20:33N 49°10' W 123°53'1 0.7
2015-May-21 19:23N 49°11' W 123°52'0 0.5
2015-May-21 18:33N 49°11' W 123°52'3 2.7
2015-May-21 17:30N 49°10' W 123°56'0 0.1
2015-May-21 16:33N 49°10' W 123°56'2 2.3
2015-May-21 15:30N 49°11' W 123°52'0 0.4
2015-May-21 14:33N 49°11' W 123°52'2 2.4
2015-May-21 13:33N 49°10' W 123°55'2 2.3
2015-May-21 12:31N 49°11' W 123°52'0 0.0
2015-May-21 10:22N 49°11' W 123°52'0 0.0
2015-May-21 09:10N 49°11' W 123°52'0 0.0
2015-May-21 06:27N 49°11' W 123°52'0 0.0
2015-May-21 04:22N 49°11' W 123°52'1 1.3
2015-May-21 03:33N 49°10' W 123°53'0 0.3
2015-May-21 02:33N 49°11' W 123°53'1 0.6
2015-May-21 01:33N 49°11' W 123°52'0 0.2
2015-May-21 00:29N 49°11' W 123°52'1 1.0
2015-May-20 23:32N 49°11' W 123°53'2 2.0
2015-May-20 22:33N 49°10' W 123°56'0 0.0
2015-May-20 21:33N 49°10' W 123°56'1 1.5
2015-May-20 20:33N 49°10' W 123°54'1 1.3
2015-May-20 19:29N 49°11' W 123°52'2 2.1
2015-May-20 18:33N 49°10' W 123°54'1 0.9
2015-May-20 17:31N 49°10' W 123°56'0 0.2
2015-May-20 16:33N 49°10' W 123°56'2 2.3
2015-May-20 15:31N 49°11' W 123°52'0 0.4
2015-May-20 14:30N 49°11' W 123°52'2 2.5
2015-May-20 13:33N 49°10' W 123°55'  
Track history (hours):
 
Tides and Currents Weather Stations Pressure Air Temp Water Temp Dewpoint Dewpoint Depression Visibility Wind Speed Wind Dir Waves Ship Positions

Quinsam

Last reported at 2015-May-30 06:29 UTC. Time now 2015-May-30 08:36 UTC.
Position N 49°11' W 123°52'.

Length 88 m; draft 1.5 m.

Type: Ship. MMSI: 316001266.

Date/timePositionNaut miles runAvg speedWind from/ knotsBaromVisibWave heightAir tempDewpointWater temp
2015-May-30 06:29N 49°11' W 123°52'0 0.2
2015-May-30 05:33N 49°11' W 123°52'0 0.0
2015-May-30 04:33N 49°11' W 123°52'1 0.9
2015-May-30 03:33N 49°11' W 123°53'1 0.5
2015-May-30 02:32N 49°11' W 123°52'1 0.5
2015-May-30 01:33N 49°11' W 123°52'0 0.0
2015-May-30 00:29N 49°11' W 123°52'1 1.6
2015-May-29 23:34N 49°10' W 123°54'1 1.4
2015-May-29 22:33N 49°10' W 123°56'1 0.7
2015-May-29 21:33N 49°10' W 123°55'2 2.2
2015-May-29 20:33N 49°11' W 123°52'1 0.4
2015-May-29 18:25N 49°11' W 123°53'1 0.5
2015-May-29 16:32N 49°10' W 123°54'0 0.1
2015-May-29 13:26N 49°10' W 123°54'1 0.1
2015-May-29 06:19N 49°11' W 123°53'0 0.4
2015-May-29 05:33N 49°11' W 123°52'0 0.5
2015-May-29 04:33N 49°11' W 123°52'1 1.2
2015-May-29 03:33N 49°11' W 123°53'1 0.9
2015-May-29 02:33N 49°11' W 123°52'0 0.2
2015-May-29 01:28N 49°11' W 123°52'0 0.2
2015-May-29 00:19N 49°11' W 123°53'0 0.1
2015-May-28 23:31N 49°11' W 123°53'2 2.1
2015-May-28 22:32N 49°10' W 123°56'1 1.0
2015-May-28 21:33N 49°10' W 123°54'1 1.3
2015-May-28 20:32N 49°11' W 123°53'1 0.5
2015-May-28 19:22N 49°11' W 123°52'2 2.2
2015-May-28 18:33N 49°10' W 123°54'1 1.0
2015-May-28 17:26N 49°10' W 123°56'1 0.8
2015-May-28 16:33N 49°10' W 123°55'2 2.2
2015-May-28 15:33N 49°11' W 123°52'0 0.0
2015-May-28 14:33N 49°11' W 123°52'3 2.8
2015-May-28 13:33N 49°10' W 123°56'3 2.6
2015-May-28 12:29N 49°11' W 123°52'0 0.0
2015-May-28 11:29N 49°11' W 123°52'0 0.0
2015-May-28 10:23N 49°11' W 123°52'0 0.0
2015-May-28 07:05N 49°11' W 123°52'0 0.0
2015-May-28 06:27N 49°11' W 123°52'0 0.0
2015-May-28 04:29N 49°11' W 123°52'1 0.8
2015-May-28 03:31N 49°11' W 123°53'0 0.4
2015-May-28 02:33N 49°11' W 123°52'0 0.5
2015-May-28 01:33N 49°11' W 123°52'0 0.0
2015-May-28 00:29N 49°11' W 123°52'1 1.5
2015-May-27 23:33N 49°10' W 123°54'2 1.4
2015-May-27 22:27N 49°10' W 123°56'1 1.0
2015-May-27 21:33N 49°10' W 123°55'2 2.0
2015-May-27 20:33N 49°11' W 123°52'0 0.0
2015-May-27 19:33N 49°11' W 123°52'2 2.3
2015-May-27 18:33N 49°10' W 123°55'1 0.6
2015-May-27 17:29N 49°10' W 123°56'0 0.2
2015-May-27 16:33N 49°10' W 123°56'2 2.3
2015-May-27 15:28N 49°11' W 123°52'0 0.2
2015-May-27 14:31N 49°11' W 123°52'3 2.9
2015-May-27 13:33N 49°10' W 123°56'3 2.6
2015-May-27 12:28N 49°11' W 123°52'0 0.0
2015-May-27 06:32N 49°11' W 123°52'1 0.5
2015-May-27 05:33N 49°11' W 123°52'0 0.3
2015-May-27 04:33N 49°11' W 123°52'1 0.7
2015-May-27 03:33N 49°11' W 123°53'0 0.2
2015-May-27 02:32N 49°11' W 123°53'0 0.1
2015-May-27 01:26N 49°11' W 123°53'1 0.9
2015-May-27 00:30N 49°11' W 123°52'1 1.4
2015-May-26 23:33N 49°10' W 123°54'2 1.4
2015-May-26 22:27N 49°10' W 123°56'1 1.3
2015-May-26 21:33N 49°10' W 123°54'1 1.2
2015-May-26 20:29N 49°11' W 123°52'0 0.5
2015-May-26 19:33N 49°11' W 123°52'2 2.2
2015-May-26 18:33N 49°10' W 123°55'1 0.6
2015-May-26 17:25N 49°10' W 123°56'1 1.5
2015-May-26 16:33N 49°10' W 123°54'2 1.6
2015-May-26 15:33N 49°11' W 123°52'0 0.0
2015-May-26 14:33N 49°11' W 123°52'3 2.6
2015-May-26 13:33N 49°10' W 123°55'3 0.4
2015-May-26 06:27N 49°11' W 123°52'1 0.6
2015-May-26 05:33N 49°11' W 123°52'1 0.5
2015-May-26 04:30N 49°11' W 123°52'1 1.0
2015-May-26 03:33N 49°11' W 123°53'0 0.4
2015-May-26 02:33N 49°11' W 123°52'1 0.6
2015-May-26 01:33N 49°11' W 123°52'0 0.0
2015-May-26 00:33N 49°11' W 123°52'2 1.7
2015-May-25 23:33N 49°10' W 123°54'1 1.2
2015-May-25 22:32N 49°10' W 123°56'1 1.4
2015-May-25 21:33N 49°10' W 123°54'1 0.9
2015-May-25 20:29N 49°11' W 123°53'0 0.2
2015-May-25 19:23N 49°11' W 123°52'0 0.2
2015-May-25 18:08N 49°11' W 123°52'3 4.4
2015-May-25 17:33N 49°10' W 123°56'1 0.6
2015-May-25 16:33N 49°10' W 123°55'2 2.2
2015-May-25 15:33N 49°11' W 123°52'0 0.3
2015-May-25 14:12N 49°11' W 123°52'2 3.6
2015-May-25 13:33N 49°10' W 123°56'3 2.6
2015-May-25 12:29N 49°11' W 123°52'0 0.0
2015-May-25 06:28N 49°11' W 123°52'0 0.2
2015-May-25 05:32N 49°11' W 123°52'0 0.2
2015-May-25 04:33N 49°11' W 123°52'1 0.7
2015-May-25 03:33N 49°10' W 123°53'0 0.4
2015-May-25 02:32N 49°11' W 123°53'0 0.3
2015-May-25 01:28N 49°11' W 123°52'0 0.4
2015-May-25 00:33N 49°11' W 123°52'2 1.8
2015-May-24 23:34N 49°10' W 123°54'1 1.1
2015-May-24 22:33N 49°10' W 123°56'3 2.7
2015-May-24 21:30N 49°11' W 123°52'0 0.2
2015-May-24 20:29N 49°11' W 123°52'0 0.2
2015-May-24 19:13N 49°11' W 123°52'2 2.4
2015-May-24 18:33N 49°10' W 123°55'1 0.7
2015-May-24 17:25N 49°10' W 123°56'1 1.0
2015-May-24 16:33N 49°10' W 123°55'0 0.0
2015-May-24 06:11N 49°10' W 123°54'1 0.9
2015-May-24 05:17N 49°11' W 123°53'1 0.8
2015-May-24 04:17N 49°11' W 123°52'1 1.0
2015-May-24 03:33N 49°10' W 123°53'1 0.7
2015-May-24 02:33N 49°11' W 123°52'1 0.5
2015-May-24 01:32N 49°11' W 123°52'0 0.0
2015-May-24 00:33N 49°11' W 123°52'2 1.6
2015-May-23 23:33N 49°10' W 123°54'1 1.2
2015-May-23 22:32N 49°10' W 123°56'3 3.0
2015-May-23 21:33N 49°11' W 123°52'0 0.2
2015-May-23 20:32N 49°11' W 123°52'0 0.2
2015-May-23 19:24N 49°11' W 123°52'2 2.3
2015-May-23 18:33N 49°10' W 123°54'1 0.9
2015-May-23 17:26N 49°10' W 123°56'1 1.1
2015-May-23 16:34N 49°10' W 123°54'2 1.9
2015-May-23 15:34N 49°11' W 123°52'0 0.0
2015-May-23 14:25N 49°11' W 123°52'3 3.1
2015-May-23 13:33N 49°10' W 123°55'3 0.4
2015-May-23 06:27N 49°11' W 123°52'0 0.0
2015-May-23 05:33N 49°11' W 123°52'0 0.0
2015-May-23 04:33N 49°11' W 123°52'1 1.3
2015-May-23 03:33N 49°10' W 123°53'1 0.7
2015-May-23 02:32N 49°11' W 123°52'1 0.6
2015-May-23 01:33N 49°11' W 123°52'0 0.0
2015-May-23 00:33N 49°11' W 123°52'1 0.7
2015-May-22 23:33N 49°11' W 123°53'2 2.0
2015-May-22 22:26N 49°10' W 123°56'1 1.0
2015-May-22 21:33N 49°10' W 123°54'2 1.9
2015-May-22 20:34N 49°11' W 123°52'0 0.2
2015-May-22 19:33N 49°11' W 123°52'2 1.9
2015-May-22 18:33N 49°10' W 123°54'1 0.9
2015-May-22 17:25N 49°10' W 123°56'0 0.6
2015-May-22 16:34N 49°10' W 123°55'2 2.4
2015-May-22 15:33N 49°11' W 123°52'0 0.0
2015-May-22 14:25N 49°11' W 123°52'2 2.6
2015-May-22 13:32N 49°10' W 123°55'2 1.1
2015-May-22 11:26N 49°11' W 123°52'0 0.0
2015-May-22 10:17N 49°11' W 123°52'0 0.0
2015-May-22 06:26N 49°11' W 123°52'0 0.0
2015-May-22 05:33N 49°11' W 123°52'0 0.0
2015-May-22 04:28N 49°11' W 123°52'0 0.0
2015-May-22 03:26N 49°11' W 123°52'1 0.7
2015-May-22 02:33N 49°11' W 123°53'0 0.1
2015-May-22 01:26N 49°11' W 123°53'1 0.8
2015-May-22 00:32N 49°11' W 123°52'1 1.5
2015-May-21 23:33N 49°10' W 123°54'1 1.4
2015-May-21 22:33N 49°10' W 123°56'0 0.0
2015-May-21 21:33N 49°10' W 123°56'2 1.7
2015-May-21 20:33N 49°10' W 123°53'1 0.7
2015-May-21 19:23N 49°11' W 123°52'0 0.5
2015-May-21 18:33N 49°11' W 123°52'3 2.7
2015-May-21 17:30N 49°10' W 123°56'0 0.1
2015-May-21 16:33N 49°10' W 123°56'2 2.3
2015-May-21 15:30N 49°11' W 123°52'0 0.4
2015-May-21 14:33N 49°11' W 123°52'2 2.4
2015-May-21 13:33N 49°10' W 123°55'2 2.3
2015-May-21 12:31N 49°11' W 123°52'0 0.0
2015-May-21 10:22N 49°11' W 123°52'0 0.0
2015-May-21 09:10N 49°11' W 123°52'0 0.0
2015-May-21 06:27N 49°11' W 123°52'0 0.0
2015-May-21 04:22N 49°11' W 123°52'1 1.3
2015-May-21 03:33N 49°10' W 123°53'0 0.3
2015-May-21 02:33N 49°11' W 123°53'1 0.6
2015-May-21 01:33N 49°11' W 123°52'0 0.2
2015-May-21 00:29N 49°11' W 123°52'1 1.0
2015-May-20 23:32N 49°11' W 123°53'2 2.0
2015-May-20 22:33N 49°10' W 123°56'0 0.0
2015-May-20 21:33N 49°10' W 123°56'1 1.5
2015-May-20 20:33N 49°10' W 123°54'1 1.3
2015-May-20 19:29N 49°11' W 123°52'2 2.1
2015-May-20 18:33N 49°10' W 123°54'1 0.9
2015-May-20 17:31N 49°10' W 123°56'0 0.2
2015-May-20 16:33N 49°10' W 123°56'2 2.3
2015-May-20 15:31N 49°11' W 123°52'0 0.4
2015-May-20 14:30N 49°11' W 123°52'2 2.5
2015-May-20 13:33N 49°10' W 123°55'  

Dump ship's entire track history